Time;durP1;ratioP1;P1;durP2;ratioP2;P2;SDS_P1;SDS_P2;PMS_P1;PMS_P2;Temp;Humidity;BMP_temperature;BMP_pressure;BME280_temperature;BME280_humidity;BME280_pressure;Samples;Min_cycle;Max_cycle;Signal;HPM_P1;HPM_P2
2022/07/29 00:00:33;;;;;;;;;;;;;;;-142.75;100.00;76873.44;5013420;28;19935;-71
2022/07/29 00:02:58;;;;;;;;;;;;;;;-142.75;100.00;76881.31;5014623;28;20298;-71
2022/07/29 00:05:23;;;;;;;;;;;;;;;-142.75;100.00;76881.31;5013348;28;20342;-71
2022/07/29 00:07:49;;;;;;;;;;;;;;;-142.75;100.00;76881.31;5014316;28;19924;-71
2022/07/29 00:10:14;;;;;;;;;;;;;;;-142.75;100.00;76885.25;5013309;28;19913;-71
2022/07/29 00:12:39;;;;;;;;;;;;;;;-142.75;100.00;76881.31;5028742;28;19964;-71
2022/07/29 00:15:04;;;;;;;;;;;;;;;-142.75;100.00;76881.31;5014271;28;19917;-71
2022/07/29 00:17:30;;;;;;;;;;;;;;;-142.75;100.00;76875.41;5029368;28;20363;-72
2022/07/29 00:19:55;;;;;;;;;;;;;;;-142.75;100.00;76881.31;5013915;28;19975;-72
2022/07/29 00:22:20;;;;;;;;;;;;;;;-142.75;100.00;76877.38;5028569;28;19921;-71
2022/07/29 00:24:47;;;;;;;;;;;;;;;-142.75;100.00;76877.38;5014218;28;19917;-71
2022/07/29 00:27:12;;;;;;;;;;;;;;;-142.75;100.00;76889.19;5013780;28;19914;-71
2022/07/29 00:29:38;;;;;;;;;;;;;;;-142.75;100.00;76883.28;5014209;28;19914;-72
2022/07/29 00:32:03;;;;;;;;;;;;;;;-142.75;100.00;76887.22;5012835;28;19914;-71
2022/07/29 00:37:13;;;;;;;;;;;;;;;-142.75;100.00;76885.25;5013838;28;19936;-71
2022/07/29 00:39:38;;;;;;;;;;;;;;;-142.75;100.00;76889.19;5029139;28;20383;-72
2022/07/29 00:42:04;;;;;;;;;;;;;;;-142.75;100.00;76893.13;5013902;28;19917;-71
2022/07/29 00:44:29;;;;;;;;;;;;;;;-142.75;100.00;76893.13;5013678;28;19972;-71
2022/07/29 00:46:54;;;;;;;;;;;;;;;-142.75;100.00;76897.06;5013594;28;19913;-71
2022/07/29 00:49:20;;;;;;;;;;;;;;;-142.75;100.00;76893.13;5012945;28;19971;-71
2022/07/29 00:51:45;;;;;;;;;;;;;;;-142.75;100.00;76899.03;5032219;28;19961;-71
2022/07/29 00:54:10;;;;;;;;;;;;;;;-142.75;100.00;76897.06;5033300;28;19913;-71
2022/07/29 00:56:35;;;;;;;;;;;;;;;-142.75;100.00;76899.03;5032952;28;20282;-71
2022/07/29 00:59:01;;;;;;;;;;;;;;;-142.75;100.00;76901.00;5033351;28;19968;-71
2022/07/29 01:01:26;;;;;;;;;;;;;;;-142.75;100.00;76901.00;5033255;28;19917;-71
2022/07/29 01:03:51;;;;;;;;;;;;;;;-142.75;100.00;76901.00;5033082;28;20361;-71
2022/07/29 01:06:17;;;;;;;;;;;;;;;-142.75;100.00;76910.84;5033181;28;19921;-72
2022/07/29 01:08:43;;;;;;;;;;;;;;;-142.75;100.00;76904.94;5032921;28;19920;-71
2022/07/29 01:11:09;;;;;;;;;;;;;;;-142.75;100.00;76902.97;5048005;28;20011;-72
2022/07/29 01:13:34;;;;;;;;;;;;;;;-142.75;100.00;76908.88;5048017;28;20043;-71
2022/07/29 01:16:04;;;;;;;;;;;;;;;-142.75;100.00;76904.94;5032682;28;19924;-71
2022/07/29 01:18:39;;;;;;;;;;;;;;;-142.75;100.00;76906.91;5048060;28;19960;-72
2022/07/29 01:21:22;;;;;;;;;;;;;;;-142.75;100.00;76912.81;5032940;28;20450;-71
2022/07/29 01:24:06;;;;;;;;;;;;;;;-142.75;100.00;76904.94;5032769;28;19921;-72
2022/07/29 01:26:51;;;;;;;;;;;;;;;-142.75;100.00;76910.84;5032358;28;19913;-70
2022/07/29 01:29:17;;;;;;;;;;;;;;;-142.75;100.00;76912.81;5032356;28;19940;-71
2022/07/29 01:31:51;;;;;;;;;;;;;;;-142.75;100.00;76912.81;5032698;28;20363;-71
2022/07/29 01:34:20;;;;;;;;;;;;;;;-142.75;100.00;76918.72;5032683;28;19951;-72
2022/07/29 01:36:50;;;;;;;;;;;;;;;-142.75;100.00;76924.63;5032379;28;20034;-71
2022/07/29 01:39:23;;;;;;;;;;;;;;;-142.75;100.00;76922.66;5032711;28;20035;-71
2022/07/29 01:41:58;;;;;;;;;;;;;;;-142.75;100.00;76924.63;5032587;28;19913;-71
2022/07/29 01:44:30;;;;;;;;;;;;;;;-142.75;100.00;76916.75;5032342;28;19917;-71
2022/07/29 01:46:57;;;;;;;;;;;;;;;-142.75;100.00;76922.66;5047648;28;20086;-70
2022/07/29 01:49:29;;;;;;;;;;;;;;;-142.75;100.00;76916.75;5032546;28;19913;-71
2022/07/29 01:51:58;;;;;;;;;;;;;;;-142.75;100.00;76916.75;5047906;28;20465;-70
2022/07/29 01:54:30;;;;;;;;;;;;;;;-142.75;100.00;76912.81;5032404;28;19913;-71
2022/07/29 01:56:56;;;;;;;;;;;;;;;-142.75;100.00;76918.72;5032028;28;19913;-71
2022/07/29 01:59:23;;;;;;;;;;;;;;;-142.75;100.00;76914.78;5032431;28;19991;-72
2022/07/29 02:01:50;;;;;;;;;;;;;;;-142.75;100.00;76920.69;5032396;28;19945;-72
2022/07/29 02:04:16;;;;;;;;;;;;;;;-142.75;100.00;76920.69;5047557;28;19924;-71
2022/07/29 02:06:42;;;;;;;;;;;;;;;-142.75;100.00;76916.75;5031977;28;19923;-71
2022/07/29 02:09:09;;;;;;;;;;;;;;;-142.75;100.00;76912.81;5032270;28;19913;-72
2022/07/29 02:11:36;;;;;;;;;;;;;;;-142.75;100.00;76914.78;5032126;28;19923;-71
2022/07/29 02:14:01;;;;;;;;;;;;;;;-142.75;100.00;76914.78;5032032;28;19948;-72
2022/07/29 02:16:28;;;;;;;;;;;;;;;-142.75;100.00;76912.81;5032138;28;19914;-71
2022/07/29 02:18:54;;;;;;;;;;;;;;;-142.75;100.00;76912.81;5047328;28;19913;-71
2022/07/29 02:21:22;;;;;;;;;;;;;;;-142.75;100.00;76910.84;5032186;28;19920;-72
2022/07/29 02:23:48;;;;;;;;;;;;;;;-142.75;100.00;76910.84;5047163;28;19917;-72
2022/07/29 02:26:14;;;;;;;;;;;;;;;-142.75;100.00;76912.81;5032054;28;20390;-72
2022/07/29 02:28:40;;;;;;;;;;;;;;;-142.75;100.00;76914.78;5031839;28;19913;-72
2022/07/29 02:31:06;;;;;;;;;;;;;;;-142.75;100.00;76914.78;5032120;28;19936;-72
2022/07/29 02:33:32;;;;;;;;;;;;;;;-142.75;100.00;76924.63;5032031;28;19917;-72
2022/07/29 02:35:58;;;;;;;;;;;;;;;-142.75;100.00;76920.69;5031981;28;19914;-72
2022/07/29 02:41:11;;;;;;;;;;;;;;;-142.75;100.00;76924.63;5036083;28;19960;-72
2022/07/29 02:43:36;;;;;;;;;;;;;;;-142.75;100.00;76926.59;5035835;28;19921;-71
2022/07/29 02:46:04;;;;;;;;;;;;;;;-142.75;100.00;76926.59;5035747;28;19913;-72
2022/07/29 02:48:53;;;;;;;;;;;;;;;-142.75;100.00;76924.63;5035499;28;19917;-72
2022/07/29 02:51:19;;;;;;;;;;;;;;;-142.75;100.00;76922.66;5027432;28;19920;-72
2022/07/29 02:53:46;;;;;;;;;;;;;;;-142.75;100.00;76924.63;5035673;28;19913;-71
2022/07/29 02:56:13;;;;;;;;;;;;;;;-142.75;100.00;76928.56;5035622;28;19913;-72
2022/07/29 02:58:42;;;;;;;;;;;;;;;-142.75;100.00;76926.59;5034881;28;20412;-71
2022/07/29 03:01:23;;;;;;;;;;;;;;;-142.75;100.00;76930.53;5035876;28;20397;-72
2022/07/29 03:03:50;;;;;;;;;;;;;;;-142.75;100.00;76936.44;5035488;28;19924;-71
2022/07/29 03:06:16;;;;;;;;;;;;;;;-142.75;100.00;76936.44;5035502;28;19952;-72
2022/07/29 03:08:42;;;;;;;;;;;;;;;-142.75;100.00;76940.38;5035176;28;19971;-72
2022/07/29 03:11:08;;;;;;;;;;;;;;;-142.75;100.00;76936.44;5035450;28;19917;-72
2022/07/29 03:13:34;;;;;;;;;;;;;;;-142.75;100.00;76932.50;5035400;28;19920;-71
2022/07/29 03:16:00;;;;;;;;;;;;;;;-142.75;100.00;76936.44;5035070;28;19917;-72
2022/07/29 03:18:25;;;;;;;;;;;;;;;-142.75;100.00;76944.31;5035040;28;19966;-71
2022/07/29 03:20:51;;;;;;;;;;;;;;;-142.75;100.00;76934.47;5050696;28;19939;-72
2022/07/29 03:23:19;;;;;;;;;;;;;;;-142.75;100.00;76940.38;5035138;28;19921;-72
2022/07/29 03:25:45;;;;;;;;;;;;;;;-142.75;100.00;76944.31;5050420;28;19913;-72
2022/07/29 03:28:10;;;;;;;;;;;;;;;-142.75;100.00;76940.38;5034907;28;19920;-72
2022/07/29 03:30:36;;;;;;;;;;;;;;;-142.75;100.00;76944.31;5034945;28;19917;-71
2022/07/29 03:33:01;;;;;;;;;;;;;;;-142.75;100.00;76948.25;5035083;28;20390;-71
2022/07/29 03:35:26;;;;;;;;;;;;;;;-142.75;100.00;76950.22;5050248;28;20326;-71
2022/07/29 03:37:51;;;;;;;;;;;;;;;-142.75;100.00;76950.22;5034667;28;19963;-71
2022/07/29 03:40:22;;;;;;;;;;;;;;;-142.75;100.00;76952.19;5050276;28;19913;-74
2022/07/29 03:42:49;;;;;;;;;;;;;;;-142.75;100.00;76958.09;5034911;28;19968;-72
2022/07/29 03:45:16;;;;;;;;;;;;;;;-142.75;100.00;76960.06;5034754;28;19913;-72
2022/07/29 03:47:45;;;;;;;;;;;;;;;-142.75;100.00;76962.03;5049347;28;19999;-72
2022/07/29 03:50:13;;;;;;;;;;;;;;;-142.75;100.00;76958.09;5034800;28;20398;-71
2022/07/29 03:52:38;;;;;;;;;;;;;;;-142.75;100.00;76962.03;5034668;28;19968;-71
2022/07/29 03:55:04;;;;;;;;;;;;;;;-142.75;100.00;76958.09;5034605;28;19949;-71
2022/07/29 03:57:30;;;;;;;;;;;;;;;-142.75;100.00;76964.00;5034270;28;20319;-72
2022/07/29 03:59:55;;;;;;;;;;;;;;;-142.75;100.00;76962.03;5049859;28;19960;-71
2022/07/29 04:02:21;;;;;;;;;;;;;;;-142.75;100.00;76967.94;5034404;28;19913;-72
2022/07/29 04:04:46;;;;;;;;;;;;;;;-142.75;100.00;76965.97;5034389;28;19917;-73
2022/07/29 04:07:12;;;;;;;;;;;;;;;-142.75;100.00;76967.94;5041131;28;19917;-71
2022/07/29 04:09:37;;;;;;;;;;;;;;;-142.75;100.00;76971.88;5033334;28;19921;-71
2022/07/29 04:12:03;;;;;;;;;;;;;;;-142.75;100.00;76977.78;5034179;28;20305;-73
2022/07/29 04:14:28;;;;;;;;;;;;;;;-142.75;100.00;76977.78;5050444;22;19923;-74
2022/07/29 04:16:53;;;;;;;;;;;;;;;-142.75;100.00;76973.84;5031872;28;19929;-75
2022/07/29 04:19:19;;;;;;;;;;;;;;;-142.75;100.00;76975.81;5033552;28;20042;-75
2022/07/29 04:21:45;;;;;;;;;;;;;;;-142.75;100.00;76973.84;5031709;28;19917;-75
2022/07/29 04:24:10;;;;;;;;;;;;;;;-142.75;100.00;76977.78;5033992;28;19917;-75
2022/07/29 04:26:35;;;;;;;;;;;;;;;-142.75;100.00;76979.75;5033002;28;19951;-73
2022/07/29 04:29:01;;;;;;;;;;;;;;;-142.75;100.00;76975.81;5030765;28;19913;-75
2022/07/29 04:31:26;;;;;;;;;;;;;;;-142.75;100.00;76975.81;5032117;28;19919;-75
2022/07/29 04:33:51;;;;;;;;;;;;;;;-142.75;100.00;76973.84;5033770;28;20008;-75
2022/07/29 04:36:16;;;;;;;;;;;;;;;-142.75;100.00;76981.72;5032451;28;19913;-76
2022/07/29 04:38:42;;;;;;;;;;;;;;;-142.75;100.00;76985.66;5032532;28;19913;-75
2022/07/29 04:41:08;;;;;;;;;;;;;;;-142.75;100.00;76989.59;5033852;28;19913;-74
2022/07/29 04:43:34;;;;;;;;;;;;;;;-142.75;100.00;76987.63;5032198;28;19924;-75
2022/07/29 04:45:59;;;;;;;;;;;;;;;-142.75;100.00;76991.56;5033614;28;19913;-76
2022/07/29 04:48:25;;;;;;;;;;;;;;;-142.75;100.00;76987.63;5032022;28;19920;-74
2022/07/29 04:50:50;;;;;;;;;;;;;;;-142.75;100.00;76991.56;5033567;28;19914;-75
2022/07/29 04:53:15;;;;;;;;;;;;;;;-142.75;100.00;76995.50;5033529;28;20298;-75
2022/07/29 04:55:40;;;;;;;;;;;;;;;-142.75;100.00;77001.41;5033368;28;19936;-75
2022/07/29 04:58:07;;;;;;;;;;;;;;;-142.75;100.00;77003.38;5033134;28;19917;-76
2022/07/29 05:00:32;;;;;;;;;;;;;;;-142.75;100.00;77007.31;5032508;28;19917;-76
2022/07/29 05:02:57;;;;;;;;;;;;;;;-142.75;100.00;77007.31;5033446;28;19983;-75
2022/07/29 05:05:22;;;;;;;;;;;;;;;-142.75;100.00;77011.25;5033174;28;20484;-75
2022/07/29 05:07:48;;;;;;;;;;;;;;;-142.75;100.00;77011.25;5032993;28;20007;-75
2022/07/29 05:10:13;;;;;;;;;;;;;;;-142.75;100.00;77011.25;5033245;28;19917;-75
2022/07/29 05:12:38;;;;;;;;;;;;;;;-142.75;100.00;77001.41;5033125;28;19913;-75
2022/07/29 05:15:04;;;;;;;;;;;;;;;-142.75;100.00;76997.47;5032936;28;19924;-75
2022/07/29 05:17:29;;;;;;;;;;;;;;;-142.75;100.00;77003.38;5033014;28;19927;-74
2022/07/29 05:19:54;;;;;;;;;;;;;;;-142.75;100.00;76999.44;5033058;28;19976;-75
2022/07/29 05:22:20;;;;;;;;;;;;;;;-142.75;100.00;77001.41;5032939;28;19935;-75
2022/07/29 05:24:45;;;;;;;;;;;;;;;-142.75;100.00;76999.44;5032890;28;19913;-74
2022/07/29 05:27:10;;;;;;;;;;;;;;;-142.75;100.00;76995.50;5032624;28;20378;-75
2022/07/29 05:29:36;;;;;;;;;;;;;;;-142.75;100.00;76979.75;5031596;28;19917;-75
2022/07/29 05:32:01;;;;;;;;;;;;;;;-142.75;100.00;76964.00;5031580;28;19920;-75
2022/07/29 05:34:26;;;;;;;;;;;;;;;-142.75;100.00;76940.38;5032523;28;19964;-75
2022/07/29 05:36:52;;;;;;;;;;;;;;;-142.75;100.00;76918.72;5031119;28;19920;-73
2022/07/29 05:39:17;;;;;;;;;;;;;;;-142.75;100.00;76893.13;5031504;28;19913;-75
2022/07/29 05:41:42;;;;;;;;;;;;;;;-142.75;100.00;76873.44;5032695;28;20345;-75
2022/07/29 05:44:07;;;;;;;;;;;;;;;-142.75;100.00;76855.72;5032547;28;19956;-75
2022/07/29 05:46:32;;;;;;;;;;;;;;;-142.75;100.00;76839.97;5032322;28;19913;-73
2022/07/29 05:48:58;;;;;;;;;;;;;;;-142.75;100.00;76838.00;5031268;28;20012;-75
2022/07/29 05:51:23;;;;;;;;;;;;;;;-142.75;100.00;76830.13;5032578;28;19913;-75
2022/07/29 05:53:48;;;;;;;;;;;;;;;-142.75;100.00;76814.38;5031361;28;20008;-75
2022/07/29 05:56:13;;;;;;;;;;;;;;;-142.75;100.00;76790.78;5032425;28;19913;-75
2022/07/29 05:58:38;;;;;;;;;;;;;;;-142.75;100.00;76771.09;5032159;28;19913;-75
2022/07/29 06:01:04;;;;;;;;;;;;;;;-142.75;100.00;76755.34;5031191;28;19920;-75
2022/07/29 06:03:30;;;;;;;;;;;;;;;-142.75;100.00;76737.63;5032420;28;19917;-75
2022/07/29 06:05:55;;;;;;;;;;;;;;;-142.75;100.00;76737.63;5032202;28;19913;-75
2022/07/29 06:08:20;;;;;;;;;;;;;;;-142.75;100.00;76741.56;5032060;28;19913;-74
2022/07/29 06:10:45;;;;;;;;;;;;;;;-142.75;100.00;76737.63;5032089;28;20020;-75
2022/07/29 06:13:11;;;;;;;;;;;;;;;-142.75;100.00;76747.47;5032119;28;19917;-75
2022/07/29 06:15:37;;;;;;;;;;;;;;;-142.75;100.00;76755.34;5032003;28;20389;-75
2022/07/29 06:18:02;;;;;;;;;;;;;;;-142.75;100.00;76759.28;5030598;28;19920;-75
2022/07/29 06:20:29;;;;;;;;;;;;;;;-142.75;100.00;76767.16;5030926;28;19960;-75
2022/07/29 06:22:54;;;;;;;;;;;;;;;-142.75;100.00;76769.13;5032274;28;20351;-75
2022/07/29 06:25:20;;;;;;;;;;;;;;;-142.75;100.00;76769.13;5032143;28;19956;-75
2022/07/29 06:27:45;;;;;;;;;;;;;;;-142.75;100.00;76769.13;5030482;28;19919;-75
2022/07/29 06:30:10;;;;;;;;;;;;;;;-142.75;100.00;76771.09;5032185;28;19917;-77
2022/07/29 06:32:36;;;;;;;;;;;;;;;-142.75;100.00;76771.09;5032143;28;19921;-74
2022/07/29 06:35:01;;;;;;;;;;;;;;;-142.75;100.00;76778.97;5031972;28;19917;-75
2022/07/29 06:37:26;;;;;;;;;;;;;;;-142.75;100.00;76773.06;5031770;28;19917;-75
2022/07/29 06:40:59;;;;;;;;;;;;;;;-142.75;100.00;76771.09;5032012;28;20016;-75
2022/07/29 06:42:36;;;;;;;;;;;;;;;-142.75;100.00;76767.16;5031912;28;20032;-74
2022/07/29 06:45:02;;;;;;;;;;;;;;;-142.75;100.00;76767.16;5031893;28;20387;-75
2022/07/29 06:47:27;;;;;;;;;;;;;;;-142.75;100.00;76761.25;5031686;28;19973;-75
2022/07/29 06:49:52;;;;;;;;;;;;;;;-142.75;100.00;76763.22;5031891;28;19913;-75
2022/07/29 06:52:18;;;;;;;;;;;;;;;-142.75;100.00;76771.09;5030638;28;19920;-76
2022/07/29 06:54:47;;;;;;;;;;;;;;;-142.75;100.00;76771.09;5031773;28;20449;-75
2022/07/29 06:57:13;;;;;;;;;;;;;;;-142.75;100.00;76749.44;5031527;28;19913;-75
2022/07/29 06:59:38;;;;;;;;;;;;;;;-142.75;100.00;76723.84;5031763;28;19959;-76
2022/07/29 07:02:03;;;;;;;;;;;;;;;-142.75;100.00;76684.47;5030523;28;19913;-76
2022/07/29 07:04:28;;;;;;;;;;;;;;;-142.75;100.00;76641.16;5030341;28;19917;-74
2022/07/29 07:06:55;;;;;;;;;;;;;;;-142.75;100.00;76593.91;5031494;28;19917;-73
2022/07/29 07:09:20;;;;;;;;;;;;;;;-142.75;100.00;76580.13;5031697;28;19913;-75
2022/07/29 07:11:45;;;;;;;;;;;;;;;-142.75;100.00;76570.28;5031815;28;19913;-76
2022/07/29 07:14:11;;;;;;;;;;;;;;;-142.75;100.00;76534.84;5031642;28;19971;-75
2022/07/29 07:16:36;;;;;;;;;;;;;;;-142.75;100.00;76527.00;5029897;28;19943;-75
2022/07/29 07:19:01;;;;;;;;;;;;;;;-142.75;100.00;76534.84;5031643;28;19917;-75
2022/07/29 07:21:26;;;;;;;;;;;;;;;-142.75;100.00;76534.84;5031016;28;19924;-76
2022/07/29 07:23:52;;;;;;;;;;;;;;;-142.75;100.00;76521.09;5037976;28;20007;-77
2022/07/29 07:26:17;;;;;;;;;;;;;;;-142.75;100.00;76503.38;5052887;28;19916;-76
2022/07/29 07:28:42;;;;;;;;;;;;;;;-142.75;100.00;76465.97;5052294;28;20007;-78
2022/07/29 07:31:07;;;;;;;;;;;;;;;-142.75;100.00;76448.25;5052686;28;19994;-76
2022/07/29 07:33:33;;;;;;;;;;;;;;;-142.75;100.00;76422.66;5053720;28;19912;-76
2022/07/29 07:35:58;;;;;;;;;;;;;;;-142.75;100.00;76416.75;5053975;28;20062;-76
2022/07/29 07:38:23;;;;;;;;;;;;;;;-142.75;100.00;76393.13;5052100;28;20354;-77
2022/07/29 07:40:48;;;;;;;;;;;;;;;-142.75;100.00;76365.56;5053804;28;20484;-75
2022/07/29 07:43:13;;;;;;;;;;;;;;;-142.75;100.00;76347.84;5053284;28;19917;-76
2022/07/29 07:45:39;;;;;;;;;;;;;;;-142.75;100.00;76324.25;5050591;28;19912;-76
2022/07/29 07:48:05;;;;;;;;;;;;;;;-142.75;100.00;76302.59;5051816;28;19920;-75
2022/07/29 07:50:30;;;;;;;;;;;;;;;-142.75;100.00;76273.06;5053346;28;20316;-77
2022/07/29 07:52:58;;;;;;;;;;;;;;;-142.75;100.00;76255.34;5053716;28;19919;-75
2022/07/29 07:55:24;;;;;;;;;;;;;;;-142.75;100.00;76237.63;5053507;28;19913;-76
2022/07/29 07:57:49;;;;;;;;;;;;;;;-142.75;100.00;76271.09;5054284;28;20015;-77
2022/07/29 08:00:15;;;;;;;;;;;;;;;-142.75;100.00;76261.25;5053229;28;19912;-78
2022/07/29 08:02:42;;;;;;;;;;;;;;;-142.75;100.00;76243.53;5054364;28;19974;-77
2022/07/29 08:05:07;;;;;;;;;;;;;;;-142.75;100.00;76217.94;5052966;28;20424;-77
2022/07/29 08:07:33;;;;;;;;;;;;;;;-142.75;100.00;76200.25;5054069;28;19913;-76
2022/07/29 08:09:58;;;;;;;;;;;;;;;-142.75;100.00;76168.75;5054341;28;19913;-77
2022/07/29 08:12:23;;;;;;;;;;;;;;;-142.75;100.00;76154.97;5054283;28;20365;-78
2022/07/29 08:14:48;;;;;;;;;;;;;;;-142.75;100.00;76137.25;5053984;28;19950;-77
2022/07/29 08:17:13;;;;;;;;;;;;;;;-142.75;100.00;76125.44;5053867;28;19917;-79
2022/07/29 08:19:39;;;;;;;;;;;;;;;-142.75;100.00;76113.63;5054208;28;20016;-77
2022/07/29 08:22:04;;;;;;;;;;;;;;;-142.75;99.80;76117.56;5054177;28;19912;-76
2022/07/29 08:27:14;;;;;;;;;;;;;;;-142.75;100.00;76074.25;5053734;28;19920;-77
2022/07/29 08:29:39;;;;;;;;;;;;;;;-142.75;100.00;76070.34;5052672;28;19913;-77
2022/07/29 08:32:05;;;;;;;;;;;;;;;-142.75;100.00;76054.59;5052563;28;19999;-77
2022/07/29 08:34:30;;;;;;;;;;;;;;;-142.75;97.17;76044.75;5053690;28;19913;-78
2022/07/29 08:36:56;;;;;;;;;;;;;;;-142.75;94.06;76034.91;5051914;28;20299;-77
2022/07/29 08:39:22;;;;;;;;;;;;;;;-142.75;92.77;76030.97;5053760;28;20032;-77
2022/07/29 08:41:48;;;;;;;;;;;;;;;-142.75;98.34;76007.34;5053889;28;19958;-78
2022/07/29 08:44:15;;;;;;;;;;;;;;;-142.75;96.43;75999.47;5053539;28;19924;-76
2022/07/29 08:46:40;;;;;;;;;;;;;;;-142.75;92.84;75983.72;5053309;28;19913;-77
2022/07/29 08:49:05;;;;;;;;;;;;;;;-142.75;93.61;75960.13;5053611;28;19939;-77
2022/07/29 08:51:33;;;;;;;;;;;;;;;-142.75;92.17;75952.25;5052158;28;19943;-77
2022/07/29 08:53:58;;;;;;;;;;;;;;;-142.75;87.08;75944.38;5052265;28;19909;-76
2022/07/29 08:56:23;;;;;;;;;;;;;;;-142.75;84.43;75932.56;5052029;28;19920;-77
2022/07/29 08:58:49;;;;;;;;;;;;;;;-142.75;89.59;75924.69;5053178;28;19912;-77
2022/07/29 09:01:16;;;;;;;;;;;;;;;-142.75;85.11;75936.50;5053377;28;19913;-77
2022/07/29 09:03:43;;;;;;;;;;;;;;;-142.75;89.63;75908.94;5053129;28;19928;-77
2022/07/29 09:06:08;;;;;;;;;;;;;;;-142.75;86.08;75887.28;5052991;28;20306;-77
2022/07/29 09:08:34;;;;;;;;;;;;;;;-142.75;88.44;75887.28;5051699;28;19919;-77
2022/07/29 09:11:00;;;;;;;;;;;;;;;-142.75;87.22;75873.50;5053194;28;19991;-76
2022/07/29 09:13:26;;;;;;;;;;;;;;;-142.75;79.45;75851.88;5053193;28;19912;-77
2022/07/29 09:15:52;;;;;;;;;;;;;;;-142.75;82.28;75818.41;5051867;28;19944;-77
2022/07/29 09:18:37;;;;;;;;;;;;;;;-142.75;80.65;75798.72;5052763;28;19913;-75
2022/07/29 09:24:02;;;;;;;;;;;;;;;-142.75;79.20;75798.72;5052643;28;20389;-75
2022/07/29 09:26:28;;;;;;;;;;;;;;;-142.75;82.96;75786.91;5052676;28;19987;-76
2022/07/29 09:28:53;;;;;;;;;;;;;;;-142.75;82.09;75781.00;5052588;28;20404;-76
2022/07/29 09:31:26;;;;;;;;;;;;;;;-142.75;78.79;75759.38;5052722;28;19948;-76
2022/07/29 09:33:51;;;;;;;;;;;;;;;-142.75;79.22;75759.38;5052812;28;19935;-77
2022/07/29 09:36:16;;;;;;;;;;;;;;;-142.75;82.33;75727.88;5052647;28;19913;-76
2022/07/29 09:38:42;;;;;;;;;;;;;;;-142.75;79.50;75712.13;5051124;28;19913;-77
2022/07/29 09:41:08;;;;;;;;;;;;;;;-142.75;78.58;75694.41;5051346;28;19913;-77
2022/07/29 09:43:33;;;;;;;;;;;;;;;-142.75;76.07;75688.50;5051160;28;19920;-77
2022/07/29 09:46:11;;;;;;;;;;;;;;;-142.75;73.43;75676.69;5052151;28;20413;-75
2022/07/29 09:48:37;;;;;;;;;;;;;;;-142.75;75.72;75662.94;5051102;28;19919;-76
2022/07/29 09:51:02;;;;;;;;;;;;;;;-142.75;72.66;75657.03;5052459;28;20007;-77
2022/07/29 09:53:32;;;;;;;;;;;;;;;-142.75;73.35;75651.13;5052439;28;20000;-76
2022/07/29 09:55:57;;;;;;;;;;;;;;;-142.75;75.18;75627.50;5051013;28;19916;-76
2022/07/29 09:58:22;;;;;;;;;;;;;;;-142.75;73.96;75627.50;5051845;28;19920;-74
2022/07/29 10:00:49;;;;;;;;;;;;;;;-142.75;74.96;75625.53;5052323;28;19913;-74
2022/07/29 10:03:15;;;;;;;;;;;;;;;-142.75;72.28;75603.88;5052240;28;20430;-75
2022/07/29 10:05:41;;;;;;;;;;;;;;;-142.75;71.05;75603.88;5050885;28;19956;-75
2022/07/29 10:08:08;;;;;;;;;;;;;;;-142.75;70.40;75613.72;5050733;28;19917;-76
2022/07/29 10:10:35;;;;;;;;;;;;;;;-142.75;73.07;75592.09;5052174;28;20289;-75
2022/07/29 10:13:02;;;;;;;;;;;;;;;-142.75;72.58;75586.19;5050823;28;19917;-75
2022/07/29 10:15:28;;;;;;;;;;;;;;;-142.75;73.37;75554.69;5073108;22;19913;-67
2022/07/29 10:17:55;;;;;;;;;;;;;;;-142.75;71.90;75548.78;5030485;28;19971;-67
2022/07/29 10:20:21;;;;;;;;;;;;;;;-142.75;72.84;75515.31;5031500;28;19917;-67
2022/07/29 10:22:46;;;;;;;;;;;;;;;-142.75;70.55;75517.28;5032219;28;19935;-67
2022/07/29 10:25:13;;;;;;;;;;;;;;;-142.75;70.16;75519.25;5031881;28;20012;-65
2022/07/29 10:27:39;;;;;;;;;;;;;;;-142.75;74.03;75507.47;5031749;28;19920;-67
2022/07/29 10:30:04;;;;;;;;;;;;;;;-142.75;71.14;75493.69;5013247;28;19917;-66
2022/07/29 10:32:35;;;;;;;;;;;;;;;-142.75;68.90;75489.75;5032029;28;19956;-67
2022/07/29 10:35:25;;;;;;;;;;;;;;;-142.75;68.73;75466.13;5032119;28;20546;-66
2022/07/29 10:38:13;;;;;;;;;;;;;;;-142.75;69.72;75468.09;5031897;28;20298;-68
2022/07/29 10:43:35;;;;;;;;;;;;;;;-142.75;65.60;75432.69;5030770;28;20379;-66
2022/07/29 10:46:01;;;;;;;;;;;;;;;-142.75;69.38;75450.38;5014012;28;19959;-66
2022/07/29 10:48:26;;;;;;;;;;;;;;;-142.75;67.76;75438.56;5031445;28;19963;-67
2022/07/29 10:50:59;;;;;;;;;;;;;;;-142.75;64.57;75432.69;5031563;28;20391;-69
2022/07/29 10:53:44;;;;;;;;;;;;;;;-142.75;64.41;75422.84;5031720;28;19913;-67
2022/07/29 10:56:26;;;;;;;;;;;;;;;-142.75;65.71;75409.06;5013913;28;19913;-67
2022/07/29 10:59:10;;;;;;;;;;;;;;;-142.75;66.19;75395.28;5033969;28;19913;-67
2022/07/29 11:01:35;;;;;;;;;;;;;;;-142.75;65.49;75385.44;5035404;28;19913;-67
2022/07/29 11:04:00;;;;;;;;;;;;;;;-142.75;63.64;75367.72;5017501;28;20370;-67
2022/07/29 11:06:45;;;;;;;;;;;;;;;-142.75;63.92;75383.47;5035197;28;19920;-67
2022/07/29 11:09:20;;;;;;;;;;;;;;;-142.75;64.90;75367.72;5035482;28;19920;-67
2022/07/29 11:11:46;;;;;;;;;;;;;;;-142.75;66.49;75357.91;5035423;28;19913;-67
2022/07/29 11:14:11;;;;;;;;;;;;;;;-142.75;65.12;75353.97;5035463;28;19917;-66
2022/07/29 11:17:03;;;;;;;;;;;;;;;-142.75;68.67;75334.28;5034719;28;19924;-66
2022/07/29 11:19:28;;;;;;;;;;;;;;;-142.75;63.61;75369.69;5032925;28;20011;-67
2022/07/29 11:21:54;;;;;;;;;;;;;;;-142.75;63.52;75373.63;5035330;28;19998;-67
2022/07/29 11:24:20;;;;;;;;;;;;;;;-142.75;61.98;75369.69;5032079;28;19921;-67
2022/07/29 11:27:05;;;;;;;;;;;;;;;-142.75;64.07;75369.69;5034789;28;19921;-66
2022/07/29 11:29:31;;;;;;;;;;;;;;;-142.75;63.57;75418.91;5034932;28;19967;-69
2022/07/29 11:32:07;;;;;;;;;;;;;;;-142.75;62.70;75387.41;5034840;28;19913;-67
2022/07/29 11:34:33;;;;;;;;;;;;;;;-142.75;62.86;75373.63;5034729;28;19975;-67
2022/07/29 11:39:33;;;;;;;;;;;;;;;-142.75;64.08;75367.72;5035012;28;19917;-67
2022/07/29 11:42:16;;;;;;;;;;;;;;;-142.75;63.33;75357.91;5033784;28;19917;-67
2022/07/29 11:44:58;;;;;;;;;;;;;;;-142.75;65.23;75357.91;5033886;28;20329;-67
2022/07/29 11:47:24;;;;;;;;;;;;;;;-142.75;66.24;75340.19;5034173;28;19952;-67
2022/07/29 11:49:53;;;;;;;;;;;;;;;-142.75;59.35;75291.00;5034498;28;19917;-67
2022/07/29 11:52:18;;;;;;;;;;;;;;;-142.75;61.97;75259.50;5034460;28;20576;-67
2022/07/29 11:54:46;;;;;;;;;;;;;;;-142.75;61.70;75263.44;5034482;28;19913;-67
2022/07/29 11:57:12;;;;;;;;;;;;;;;-142.75;62.25;75231.94;5050688;28;19970;-67
2022/07/29 11:59:44;;;;;;;;;;;;;;;-142.75;59.80;75231.94;5054099;28;19917;-67
2022/07/29 12:02:09;;;;;;;;;;;;;;;-142.75;57.91;75235.88;5054093;28;19917;-67
2022/07/29 12:04:50;;;;;;;;;;;;;;;-142.75;58.54;75249.66;5054142;28;20287;-67
2022/07/29 12:07:17;;;;;;;;;;;;;;;-142.75;51.93;75226.06;5053511;28;19982;-67
2022/07/29 12:09:52;;;;;;;;;;;;;;;-142.75;53.60;75228.00;5053645;28;19919;-67
2022/07/29 12:12:17;;;;;;;;;;;;;;;-142.75;57.01;75247.69;5054075;28;19920;-67
2022/07/29 12:14:46;;;;;;;;;;;;;;;-142.75;57.26;75245.72;5039008;28;19919;-67
2022/07/29 12:17:25;;;;;;;;;;;;;;;-142.75;58.37;75247.69;5033475;28;20390;-67
2022/07/29 12:19:51;;;;;;;;;;;;;;;-142.75;56.51;75259.50;5014305;28;19920;-67
2022/07/29 12:22:24;;;;;;;;;;;;;;;-142.75;57.63;75251.63;5033929;28;19913;-67
2022/07/29 12:24:49;;;;;;;;;;;;;;;-142.75;57.13;75243.75;5033792;28;19969;-67
2022/07/29 12:27:16;;;;;;;;;;;;;;;-142.75;52.72;75231.94;5033493;28;20355;-67
2022/07/29 12:29:42;;;;;;;;;;;;;;;-142.75;51.21;75269.34;5033764;28;19924;-67
2022/07/29 12:32:07;;;;;;;;;;;;;;;-142.75;56.41;75239.81;5033848;28;19921;-66
2022/07/29 12:34:32;;;;;;;;;;;;;;;-142.75;53.91;75222.13;5033704;28;19932;-66
2022/07/29 12:36:58;;;;;;;;;;;;;;;-142.75;56.59;75224.09;5033216;28;19917;-66